Tropical Cyclones
[Index]
Main Index Home Page Stock Weather Photos Extreme Storms Discussion Storm News and Storm Chasing Reports Tropical Cyclones / Hurricanes / Typhoons Weather Data and Links Wild Fires / Bushfires Weather Observation Techniques Weather Picture Catalogue Tornado Pictures and Reports Stock Video Footage and DVDs for sale
Season 2004-2005 Tropical Cyclone TROP-DEPRESSION-02 Track Map
Season 2004-2005 Summaries (Operational Data): [AU] [SIO] [SPAC] [SH]
<<- Previous TC | 2004-2005 Season | Next TC ->>

click for intensity scale information  Lat/long Grid: Show Hide

 Date Labels: Show Hide

Operational Tropical Cyclone Data

Name: TROP-DEPRESSION-02
Number: 05PB

03 Dec 2004 21:00 UTC to 14 Dec 2004 18:00 UTC

    date/time    lat    long     hPa   cat  kts
2004-12-03 21   15.0   169.0    1002         20          
2004-12-04 09   13.0   170.0    1002         25          
2004-12-04 21   14.0   169.5    1002         20          
2004-12-05 09   14.0   172.0    1002         20          
2004-12-05 21   13.0   171.0    1003         20          
2004-12-06 06   13.0   168.0    1003         20          
2004-12-06 21   11.0   169.0    1003         20          
2004-12-07 06   11.0   169.0    1003         20          
2004-12-07 21   12.0   173.0    1004         15          
2004-12-08 06   11.5   171.0    1003         20          
2004-12-09 06   11.5   171.0    1003         15          
2004-12-09 23   11.0   174.0    1003         30          
2004-12-10 09   13.0   180.0    1003         30          
2004-12-10 21   13.0   176.0    1003         30          
2004-12-11 09   12.5   176.0    1002         30          
2004-12-11 21   12.5   175.5    1002         30          
2004-12-12 09   14.0   174.0    1002         30          
2004-12-12 18   14.5   172.5    1000         30          
2004-12-13 00   14.0   172.0    1000         30          
2004-12-13 06   14.4   172.0    1000         30          
2004-12-13 12   14.8   171.6    1000         30          
2004-12-13 18   14.4   171.6    1000         30          
2004-12-14 00   16.5   171.1    1002         25          
2004-12-14 06   18.0   171.5    1002         30          
2004-12-14 12   18.9   171.8    1002         30          
2004-12-14 18   20.0   172.2    1002         30          
Winds are 10-min average.

Tropical cyclone tracks developed by Michael Bath using operational warnings and advisories and Google Maps.


[Australian Severe Weather index] [Copyright Notice] [Email Contacts] [Search This Site] [Privacy Policy]
Document: tropical_cyclone_trop-depression-02.htm Updated: 28 May 2013